sensor_id;sensor_type;location;lat;lon;timestamp;pressure;altitude;pressure_sealevel;temperature;humidity
17209;BME280;8720;48.488;9.202;2023-04-30T00:00:02;97245.63;;;16.91;52.37
17209;BME280;8720;48.488;9.202;2023-04-30T00:02:36;97252.59;;;16.92;52.42
17209;BME280;8720;48.488;9.202;2023-04-30T00:05:05;97248.09;;;16.94;52.34
17209;BME280;8720;48.488;9.202;2023-04-30T00:07:33;97251.53;;;16.96;52.38
17209;BME280;8720;48.488;9.202;2023-04-30T00:10:00;97243.47;;;16.99;52.46
17209;BME280;8720;48.488;9.202;2023-04-30T00:12:27;97251.34;;;17.00;52.49
17209;BME280;8720;48.488;9.202;2023-04-30T00:14:55;97254.03;;;16.99;52.45
17209;BME280;8720;48.488;9.202;2023-04-30T00:17:22;97249.75;;;16.96;52.58
17209;BME280;8720;48.488;9.202;2023-04-30T00:19:49;97259.63;;;16.93;52.60
17209;BME280;8720;48.488;9.202;2023-04-30T00:22:18;97260.59;;;16.90;52.70
17209;BME280;8720;48.488;9.202;2023-04-30T00:24:45;97268.59;;;16.89;52.74
17209;BME280;8720;48.488;9.202;2023-04-30T00:27:12;97265.03;;;16.90;52.60
17209;BME280;8720;48.488;9.202;2023-04-30T00:29:40;97265.88;;;16.90;52.86
17209;BME280;8720;48.488;9.202;2023-04-30T00:32:08;97273.81;;;16.90;52.76
17209;BME280;8720;48.488;9.202;2023-04-30T00:34:35;97272.03;;;16.91;52.91
17209;BME280;8720;48.488;9.202;2023-04-30T00:37:02;97266.09;;;16.86;52.71
17209;BME280;8720;48.488;9.202;2023-04-30T00:39:31;97271.09;;;16.92;52.78
17209;BME280;8720;48.488;9.202;2023-04-30T00:41:58;97262.19;;;16.94;52.71
17209;BME280;8720;48.488;9.202;2023-04-30T00:44:25;97264.75;;;16.96;52.66
17209;BME280;8720;48.488;9.202;2023-04-30T00:46:53;97262.03;;;16.97;52.83
17209;BME280;8720;48.488;9.202;2023-04-30T00:49:21;97265.63;;;16.96;52.70
17209;BME280;8720;48.488;9.202;2023-04-30T00:51:50;97269.06;;;16.98;52.74
17209;BME280;8720;48.488;9.202;2023-04-30T00:54:19;97265.63;;;16.96;52.76
17209;BME280;8720;48.488;9.202;2023-04-30T00:56:48;97262.25;;;16.93;52.66
17209;BME280;8720;48.488;9.202;2023-04-30T00:59:16;97256.19;;;16.91;52.78
17209;BME280;8720;48.488;9.202;2023-04-30T01:01:43;97259.88;;;16.87;53.18
17209;BME280;8720;48.488;9.202;2023-04-30T01:04:11;97257.44;;;16.82;53.10
17209;BME280;8720;48.488;9.202;2023-04-30T01:06:38;97257.59;;;16.79;53.11
17209;BME280;8720;48.488;9.202;2023-04-30T01:09:06;97263.00;;;16.76;53.01
17209;BME280;8720;48.488;9.202;2023-04-30T01:11:47;97264.84;;;16.74;53.01
17209;BME280;8720;48.488;9.202;2023-04-30T01:14:27;97261.50;;;16.71;53.30
17209;BME280;8720;48.488;9.202;2023-04-30T01:17:04;97258.06;;;16.69;53.22
17209;BME280;8720;48.488;9.202;2023-04-30T01:19:41;97255.50;;;16.67;53.36
17209;BME280;8720;48.488;9.202;2023-04-30T01:22:13;97257.34;;;16.65;53.48
17209;BME280;8720;48.488;9.202;2023-04-30T01:25:06;97260.06;;;16.64;53.58
17209;BME280;8720;48.488;9.202;2023-04-30T01:28:01;97261.97;;;16.60;53.41
17209;BME280;8720;48.488;9.202;2023-04-30T01:30:31;97262.09;;;16.57;53.61
17209;BME280;8720;48.488;9.202;2023-04-30T01:32:58;97260.25;;;16.59;53.62
17209;BME280;8720;48.488;9.202;2023-04-30T01:35:57;97263.81;;;16.58;53.53
17209;BME280;8720;48.488;9.202;2023-04-30T01:38:48;97256.88;;;16.56;53.47
17209;BME280;8720;48.488;9.202;2023-04-30T01:41:28;97262.09;;;16.57;53.45
17209;BME280;8720;48.488;9.202;2023-04-30T01:44:16;97249.94;;;16.53;53.64
17209;BME280;8720;48.488;9.202;2023-04-30T01:46:57;97254.44;;;16.51;53.84
17209;BME280;8720;48.488;9.202;2023-04-30T01:49:43;97255.38;;;16.50;53.81
17209;BME280;8720;48.488;9.202;2023-04-30T01:52:23;97251.88;;;16.50;53.54
17209;BME280;8720;48.488;9.202;2023-04-30T01:55:02;97246.69;;;16.47;53.72
17209;BME280;8720;48.488;9.202;2023-04-30T01:57:36;97251.19;;;16.45;53.94
17209;BME280;8720;48.488;9.202;2023-04-30T02:00:08;97252.88;;;16.46;53.81
17209;BME280;8720;48.488;9.202;2023-04-30T02:05:31;97256.84;;;16.35;53.89
17209;BME280;8720;48.488;9.202;2023-04-30T02:07:59;97247.06;;;16.37;53.72
17209;BME280;8720;48.488;9.202;2023-04-30T02:10:27;97250.59;;;16.38;53.81
17209;BME280;8720;48.488;9.202;2023-04-30T02:12:55;97245.50;;;16.33;54.02
17209;BME280;8720;48.488;9.202;2023-04-30T02:15:24;97243.78;;;16.32;53.68
17209;BME280;8720;48.488;9.202;2023-04-30T02:17:52;97251.00;;;16.29;54.11
17209;BME280;8720;48.488;9.202;2023-04-30T02:20:20;97254.59;;;16.26;54.03
17209;BME280;8720;48.488;9.202;2023-04-30T02:22:47;97251.16;;;16.24;54.07
17209;BME280;8720;48.488;9.202;2023-04-30T02:25:14;97245.25;;;16.19;53.96
17209;BME280;8720;48.488;9.202;2023-04-30T02:27:42;97242.78;;;16.15;54.28
17209;BME280;8720;48.488;9.202;2023-04-30T02:30:09;97240.28;;;16.12;54.10
17209;BME280;8720;48.488;9.202;2023-04-30T02:32:38;97240.53;;;16.06;54.24
17209;BME280;8720;48.488;9.202;2023-04-30T02:35:06;97232.88;;;16.00;54.28
17209;BME280;8720;48.488;9.202;2023-04-30T02:37:34;97239.28;;;15.94;54.32
17209;BME280;8720;48.488;9.202;2023-04-30T02:40:01;97235.13;;;15.89;54.44
17209;BME280;8720;48.488;9.202;2023-04-30T02:42:29;97243.22;;;15.84;54.51
17209;BME280;8720;48.488;9.202;2023-04-30T02:44:56;97239.94;;;15.78;54.74
17209;BME280;8720;48.488;9.202;2023-04-30T02:47:24;97243.59;;;15.75;54.49
17209;BME280;8720;48.488;9.202;2023-04-30T02:49:52;97238.34;;;15.74;54.70
17209;BME280;8720;48.488;9.202;2023-04-30T02:52:20;97247.19;;;15.73;54.31
17209;BME280;8720;48.488;9.202;2023-04-30T02:54:47;97248.19;;;15.70;54.23
17209;BME280;8720;48.488;9.202;2023-04-30T02:57:15;97243.13;;;15.66;54.53
17209;BME280;8720;48.488;9.202;2023-04-30T02:59:42;97247.69;;;15.61;54.70
17209;BME280;8720;48.488;9.202;2023-04-30T03:02:11;97251.31;;;15.58;54.50
17209;BME280;8720;48.488;9.202;2023-04-30T03:04:38;97248.81;;;15.55;54.54
17209;BME280;8720;48.488;9.202;2023-04-30T03:07:07;97251.56;;;15.52;54.59
17209;BME280;8720;48.488;9.202;2023-04-30T03:09:36;97256.09;;;15.48;54.69
17209;BME280;8720;48.488;9.202;2023-04-30T03:12:04;97250.06;;;15.45;54.60
17209;BME280;8720;48.488;9.202;2023-04-30T03:14:31;97247.78;;;15.36;54.47
17209;BME280;8720;48.488;9.202;2023-04-30T03:16:58;97245.06;;;15.37;54.81
17209;BME280;8720;48.488;9.202;2023-04-30T03:19:27;97252.25;;;15.34;54.98
17209;BME280;8720;48.488;9.202;2023-04-30T03:21:54;97254.22;;;15.29;55.03
17209;BME280;8720;48.488;9.202;2023-04-30T03:24:23;97246.56;;;15.21;55.04
17209;BME280;8720;48.488;9.202;2023-04-30T03:26:51;97249.41;;;15.17;55.38
17209;BME280;8720;48.488;9.202;2023-04-30T03:29:18;97245.09;;;15.14;55.17
17209;BME280;8720;48.488;9.202;2023-04-30T03:31:45;97246.06;;;15.12;55.24
17209;BME280;8720;48.488;9.202;2023-04-30T03:34:13;97242.63;;;15.10;55.44
17209;BME280;8720;48.488;9.202;2023-04-30T03:36:40;97240.94;;;15.09;55.30
17209;BME280;8720;48.488;9.202;2023-04-30T03:39:07;97243.63;;;15.07;55.50
17209;BME280;8720;48.488;9.202;2023-04-30T03:41:36;97247.25;;;15.05;55.39
17209;BME280;8720;48.488;9.202;2023-04-30T03:44:04;97237.63;;;15.04;55.41
17209;BME280;8720;48.488;9.202;2023-04-30T03:46:31;97235.09;;;15.01;55.43
17209;BME280;8720;48.488;9.202;2023-04-30T03:48:59;97244.03;;;14.97;55.61
17209;BME280;8720;48.488;9.202;2023-04-30T03:51:26;97235.38;;;14.93;55.67
17209;BME280;8720;48.488;9.202;2023-04-30T03:53:53;97238.16;;;14.90;55.44
17209;BME280;8720;48.488;9.202;2023-04-30T03:56:21;97235.59;;;14.87;55.69
17209;BME280;8720;48.488;9.202;2023-04-30T03:58:49;97236.59;;;14.85;55.76
17209;BME280;8720;48.488;9.202;2023-04-30T04:01:17;97236.69;;;14.82;55.86
17209;BME280;8720;48.488;9.202;2023-04-30T04:03:45;97242.09;;;14.79;55.82
17209;BME280;8720;48.488;9.202;2023-04-30T04:06:12;97231.78;;;14.73;55.88
17209;BME280;8720;48.488;9.202;2023-04-30T04:08:39;97235.31;;;14.72;55.89
17209;BME280;8720;48.488;9.202;2023-04-30T04:11:08;97241.50;;;14.71;55.62
17209;BME280;8720;48.488;9.202;2023-04-30T04:13:35;97245.91;;;14.70;55.81
17209;BME280;8720;48.488;9.202;2023-04-30T04:16:04;97245.03;;;14.70;55.52
17209;BME280;8720;48.488;9.202;2023-04-30T04:18:34;97259.22;;;14.67;55.99
17209;BME280;8720;48.488;9.202;2023-04-30T04:21:01;97255.78;;;14.65;55.93
17209;BME280;8720;48.488;9.202;2023-04-30T04:23:29;97254.91;;;14.65;55.95
17209;BME280;8720;48.488;9.202;2023-04-30T04:25:57;97260.16;;;14.65;55.95
17209;BME280;8720;48.488;9.202;2023-04-30T04:28:25;97253.97;;;14.66;55.79
17209;BME280;8720;48.488;9.202;2023-04-30T04:30:52;97251.34;;;14.66;55.89
17209;BME280;8720;48.488;9.202;2023-04-30T04:33:21;97258.13;;;14.73;56.07
17209;BME280;8720;48.488;9.202;2023-04-30T04:35:49;97258.28;;;14.91;56.41
17209;BME280;8720;48.488;9.202;2023-04-30T04:38:16;97263.31;;;15.20;56.59
17209;BME280;8720;48.488;9.202;2023-04-30T04:40:51;97261.00;;;15.58;56.36
17209;BME280;8720;48.488;9.202;2023-04-30T04:43:19;97266.34;;;16.19;54.67
17209;BME280;8720;48.488;9.202;2023-04-30T04:45:46;97267.38;;;16.37;54.58
17209;BME280;8720;48.488;9.202;2023-04-30T04:48:14;97264.31;;;16.46;54.03
17209;BME280;8720;48.488;9.202;2023-04-30T04:50:43;97266.66;;;16.54;54.03
17209;BME280;8720;48.488;9.202;2023-04-30T04:53:11;97262.97;;;16.58;53.72
17209;BME280;8720;48.488;9.202;2023-04-30T04:55:38;97269.75;;;16.63;53.50
17209;BME280;8720;48.488;9.202;2023-04-30T04:58:05;97264.28;;;16.68;53.67
17209;BME280;8720;48.488;9.202;2023-04-30T05:00:33;97271.16;;;16.72;53.42
17209;BME280;8720;48.488;9.202;2023-04-30T05:03:00;97265.72;;;16.75;53.24
17209;BME280;8720;48.488;9.202;2023-04-30T05:05:28;97270.06;;;16.76;53.24
17209;BME280;8720;48.488;9.202;2023-04-30T05:07:57;97268.22;;;16.78;52.98
17209;BME280;8720;48.488;9.202;2023-04-30T05:10:24;97268.22;;;16.78;52.90
17209;BME280;8720;48.488;9.202;2023-04-30T05:12:51;97265.56;;;16.78;52.96
17209;BME280;8720;48.488;9.202;2023-04-30T05:15:19;97268.22;;;16.78;53.11
17209;BME280;8720;48.488;9.202;2023-04-30T05:17:46;97259.50;;;16.76;53.15
17209;BME280;8720;48.488;9.202;2023-04-30T05:20:13;97261.22;;;16.77;53.18
17209;BME280;8720;48.488;9.202;2023-04-30T05:22:40;97265.72;;;16.75;53.08
17209;BME280;8720;48.488;9.202;2023-04-30T05:25:09;97263.06;;;16.75;53.02
17209;BME280;8720;48.488;9.202;2023-04-30T05:27:36;97265.72;;;16.75;53.14
17209;BME280;8720;48.488;9.202;2023-04-30T05:30:05;97260.50;;;16.73;53.00
17209;BME280;8720;48.488;9.202;2023-04-30T05:32:34;97261.34;;;16.74;52.99
17209;BME280;8720;48.488;9.202;2023-04-30T05:35:01;97259.63;;;16.73;52.85
17209;BME280;8720;48.488;9.202;2023-04-30T05:37:29;97258.84;;;16.71;52.96
17209;BME280;8720;48.488;9.202;2023-04-30T05:39:56;97263.25;;;16.70;52.97
17209;BME280;8720;48.488;9.202;2023-04-30T05:42:25;97261.47;;;16.91;51.65
17209;BME280;8720;48.488;9.202;2023-04-30T05:44:53;97260.00;;;16.84;52.43
17209;BME280;8720;48.488;9.202;2023-04-30T05:47:20;97262.00;;;16.79;52.78
17209;BME280;8720;48.488;9.202;2023-04-30T05:49:47;97255.00;;;16.78;52.57
17209;BME280;8720;48.488;9.202;2023-04-30T05:52:15;97257.59;;;16.79;52.79
17209;BME280;8720;48.488;9.202;2023-04-30T05:54:42;97261.16;;;16.78;52.72
17209;BME280;8720;48.488;9.202;2023-04-30T05:57:10;97262.81;;;16.81;52.48
17209;BME280;8720;48.488;9.202;2023-04-30T05:59:38;97261.59;;;16.88;52.90
17209;BME280;8720;48.488;9.202;2023-04-30T06:02:06;97266.44;;;16.97;52.76
17209;BME280;8720;48.488;9.202;2023-04-30T06:04:33;97263.25;;;17.09;52.83
17209;BME280;8720;48.488;9.202;2023-04-30T06:07:01;97255.41;;;17.26;52.93
17209;BME280;8720;48.488;9.202;2023-04-30T06:09:28;97260.78;;;17.43;52.53
17209;BME280;8720;48.488;9.202;2023-04-30T06:11:56;97260.78;;;17.62;52.01
17209;BME280;8720;48.488;9.202;2023-04-30T06:14:23;97262.91;;;17.72;52.01
17209;BME280;8720;48.488;9.202;2023-04-30T06:16:52;97261.25;;;17.88;51.45
17209;BME280;8720;48.488;9.202;2023-04-30T06:19:19;97258.91;;;17.99;51.57
17209;BME280;8720;48.488;9.202;2023-04-30T06:21:46;97261.84;;;18.12;51.36
17209;BME280;8720;48.488;9.202;2023-04-30T06:24:14;97255.28;;;18.19;51.04
17209;BME280;8720;48.488;9.202;2023-04-30T06:26:41;97257.47;;;18.28;50.83
17209;BME280;8720;48.488;9.202;2023-04-30T06:29:08;97254.38;;;18.37;50.61
17209;BME280;8720;48.488;9.202;2023-04-30T06:31:35;97252.13;;;18.47;50.64
17209;BME280;8720;48.488;9.202;2023-04-30T06:34:04;97256.94;;;18.56;50.54
17209;BME280;8720;48.488;9.202;2023-04-30T06:36:31;97257.31;;;18.65;50.21
17209;BME280;8720;48.488;9.202;2023-04-30T06:38:58;97257.56;;;18.78;50.07
17209;BME280;8720;48.488;9.202;2023-04-30T06:41:26;97261.59;;;18.85;49.85
17209;BME280;8720;48.488;9.202;2023-04-30T06:43:53;97259.81;;;18.85;49.63
17209;BME280;8720;48.488;9.202;2023-04-30T06:46:21;97257.06;;;18.87;49.47
17209;BME280;8720;48.488;9.202;2023-04-30T06:48:48;97262.28;;;18.88;49.72
17209;BME280;8720;48.488;9.202;2023-04-30T06:51:16;97259.72;;;18.87;49.76
17209;BME280;8720;48.488;9.202;2023-04-30T06:53:44;97262.38;;;18.87;49.80
17209;BME280;8720;48.488;9.202;2023-04-30T06:56:14;97267.50;;;18.90;49.80
17209;BME280;8720;48.488;9.202;2023-04-30T06:58:41;97264.78;;;18.91;49.71
17209;BME280;8720;48.488;9.202;2023-04-30T07:01:10;97268.28;;;18.92;49.41
17209;BME280;8720;48.488;9.202;2023-04-30T07:03:37;97262.38;;;18.87;49.33
17209;BME280;8720;48.488;9.202;2023-04-30T07:06:04;97256.38;;;18.83;49.70
17209;BME280;8720;48.488;9.202;2023-04-30T07:08:33;97259.25;;;18.79;49.34
17209;BME280;8720;48.488;9.202;2023-04-30T07:11:00;97259.34;;;18.77;49.50
17209;BME280;8720;48.488;9.202;2023-04-30T07:13:28;97256.47;;;18.82;49.56
17209;BME280;8720;48.488;9.202;2023-04-30T07:15:56;97246.28;;;18.90;49.52
17209;BME280;8720;48.488;9.202;2023-04-30T07:18:24;97247.59;;;18.98;49.53
17209;BME280;8720;48.488;9.202;2023-04-30T07:20:51;97242.47;;;19.11;49.39
17209;BME280;8720;48.488;9.202;2023-04-30T07:23:18;97245.34;;;19.24;48.96
17209;BME280;8720;48.488;9.202;2023-04-30T07:25:47;97244.03;;;19.31;48.70
17209;BME280;8720;48.488;9.202;2023-04-30T07:28:14;97238.34;;;19.38;48.82
17209;BME280;8720;48.488;9.202;2023-04-30T07:30:41;97249.25;;;19.49;48.48
17209;BME280;8720;48.488;9.202;2023-04-30T07:33:09;97243.00;;;19.66;48.70
17209;BME280;8720;48.488;9.202;2023-04-30T07:35:36;97238.53;;;19.82;48.40
17209;BME280;8720;48.488;9.202;2023-04-30T07:38:03;97240.00;;;20.02;48.63
17209;BME280;8720;48.488;9.202;2023-04-30T07:40:31;97244.03;;;20.24;48.28
17209;BME280;8720;48.488;9.202;2023-04-30T07:42:59;97244.94;;;20.39;47.55
17209;BME280;8720;48.488;9.202;2023-04-30T07:45:27;97240.28;;;20.42;47.33
17209;BME280;8720;48.488;9.202;2023-04-30T07:47:54;97240.22;;;20.44;46.98
17209;BME280;8720;48.488;9.202;2023-04-30T07:50:21;97235.66;;;20.46;47.10
17209;BME280;8720;48.488;9.202;2023-04-30T07:52:48;97227.69;;;20.46;47.03
17209;BME280;8720;48.488;9.202;2023-04-30T07:55:16;97233.19;;;20.43;46.83
17209;BME280;8720;48.488;9.202;2023-04-30T07:57:43;97239.25;;;20.45;46.60
17209;BME280;8720;48.488;9.202;2023-04-30T08:00:13;97240.69;;;20.50;46.47
17209;BME280;8720;48.488;9.202;2023-04-30T08:02:40;97237.66;;;20.56;46.57
17209;BME280;8720;48.488;9.202;2023-04-30T08:05:09;97241.09;;;20.58;46.00
17209;BME280;8720;48.488;9.202;2023-04-30T08:07:36;97238.34;;;20.60;46.32
17209;BME280;8720;48.488;9.202;2023-04-30T08:10:06;97243.78;;;20.72;46.49
17209;BME280;8720;48.488;9.202;2023-04-30T08:12:36;97232.00;;;20.91;45.54
17209;BME280;8720;48.488;9.202;2023-04-30T08:15:05;97241.44;;;21.10;44.92
17209;BME280;8720;48.488;9.202;2023-04-30T08:17:34;97231.56;;;21.26;44.71
17209;BME280;8720;48.488;9.202;2023-04-30T08:20:03;97241.25;;;21.41;44.28
17209;BME280;8720;48.488;9.202;2023-04-30T08:22:32;97230.75;;;21.52;43.71
17209;BME280;8720;48.488;9.202;2023-04-30T08:24:59;97231.88;;;21.62;43.32
17209;BME280;8720;48.488;9.202;2023-04-30T08:27:29;97232.44;;;21.67;42.94
17209;BME280;8720;48.488;9.202;2023-04-30T08:29:56;97235.00;;;21.69;42.67
17209;BME280;8720;48.488;9.202;2023-04-30T08:32:24;97227.84;;;21.69;42.41
17209;BME280;8720;48.488;9.202;2023-04-30T08:34:53;97224.25;;;21.70;42.50
17209;BME280;8720;48.488;9.202;2023-04-30T08:37:20;97237.66;;;21.83;42.51
17209;BME280;8720;48.488;9.202;2023-04-30T08:39:48;97240.88;;;21.88;42.42
17209;BME280;8720;48.488;9.202;2023-04-30T08:42:18;97225.66;;;21.90;42.16
17209;BME280;8720;48.488;9.202;2023-04-30T08:44:47;97235.25;;;21.93;41.72
17209;BME280;8720;48.488;9.202;2023-04-30T08:47:16;97232.50;;;21.94;41.83
17209;BME280;8720;48.488;9.202;2023-04-30T08:49:44;97244.00;;;21.95;41.24
17209;BME280;8720;48.488;9.202;2023-04-30T08:52:13;97220.97;;;21.94;41.56
17209;BME280;8720;48.488;9.202;2023-04-30T08:54:41;97228.22;;;21.92;41.00
17209;BME280;8720;48.488;9.202;2023-04-30T08:57:10;97235.75;;;21.85;41.26
17209;BME280;8720;48.488;9.202;2023-04-30T08:59:38;97235.00;;;21.69;40.73
17209;BME280;8720;48.488;9.202;2023-04-30T09:02:05;97220.75;;;21.56;41.05
17209;BME280;8720;48.488;9.202;2023-04-30T09:04:35;97228.31;;;21.49;40.69
17209;BME280;8720;48.488;9.202;2023-04-30T09:07:03;97232.59;;;21.38;40.43
17209;BME280;8720;48.488;9.202;2023-04-30T09:09:38;97219.41;;;21.22;40.93
17209;BME280;8720;48.488;9.202;2023-04-30T09:12:14;97222.44;;;21.16;41.37
17209;BME280;8720;48.488;9.202;2023-04-30T09:14:57;97216.63;;;21.10;41.35
17209;BME280;8720;48.488;9.202;2023-04-30T09:17:25;97195.16;;;20.99;41.12
17209;BME280;8720;48.488;9.202;2023-04-30T09:19:53;97217.41;;;21.12;41.22
17209;BME280;8720;48.488;9.202;2023-04-30T09:22:22;97218.47;;;21.09;41.01
17209;BME280;8720;48.488;9.202;2023-04-30T09:24:51;97217.13;;;21.16;41.15
17209;BME280;8720;48.488;9.202;2023-04-30T09:27:20;97221.03;;;21.25;40.73
17209;BME280;8720;48.488;9.202;2023-04-30T09:29:48;97235.00;;;21.28;40.42
17209;BME280;8720;48.488;9.202;2023-04-30T09:32:16;97217.69;;;21.21;40.16
17209;BME280;8720;48.488;9.202;2023-04-30T09:34:43;97222.44;;;21.16;40.50
17209;BME280;8720;48.488;9.202;2023-04-30T09:37:11;97228.91;;;21.12;40.21
17209;BME280;8720;48.488;9.202;2023-04-30T09:39:52;97223.97;;;21.06;39.87
17209;BME280;8720;48.488;9.202;2023-04-30T09:42:21;97221.50;;;21.03;40.16
17209;BME280;8720;48.488;9.202;2023-04-30T09:44:48;97210.25;;;20.98;40.34
17209;BME280;8720;48.488;9.202;2023-04-30T09:47:18;97223.03;;;21.07;40.02
17209;BME280;8720;48.488;9.202;2023-04-30T09:49:48;97214.75;;;21.12;40.15
17209;BME280;8720;48.488;9.202;2023-04-30T09:52:17;97231.94;;;21.20;39.47
17209;BME280;8720;48.488;9.202;2023-04-30T09:54:46;97223.09;;;21.20;38.96
17209;BME280;8720;48.488;9.202;2023-04-30T09:57:17;97224.84;;;21.21;39.58
17209;BME280;8720;48.488;9.202;2023-04-30T09:59:49;97229.94;;;21.24;39.24
17209;BME280;8720;48.488;9.202;2023-04-30T10:02:18;97226.34;;;21.25;39.44
17209;BME280;8720;48.488;9.202;2023-04-30T10:04:54;97225.28;;;21.27;39.02
17209;BME280;8720;48.488;9.202;2023-04-30T10:07:26;97220.72;;;21.29;39.08
17209;BME280;8720;48.488;9.202;2023-04-30T10:10:03;97226.81;;;21.31;39.23
17209;BME280;8720;48.488;9.202;2023-04-30T10:12:42;97217.22;;;21.29;39.50
17209;BME280;8720;48.488;9.202;2023-04-30T10:15:19;97226.25;;;21.26;39.38
17209;BME280;8720;48.488;9.202;2023-04-30T10:17:53;97229.50;;;21.17;39.42
17209;BME280;8720;48.488;9.202;2023-04-30T10:20:25;97215.16;;;21.06;39.51
17209;BME280;8720;48.488;9.202;2023-04-30T10:22:53;97213.22;;;21.08;39.89
17209;BME280;8720;48.488;9.202;2023-04-30T10:25:21;97221.97;;;21.10;39.38
17209;BME280;8720;48.488;9.202;2023-04-30T10:27:55;97190.97;;;20.95;39.17
17209;BME280;8720;48.488;9.202;2023-04-30T10:30:22;97224.63;;;21.10;39.20
17209;BME280;8720;48.488;9.202;2023-04-30T10:33:11;97229.50;;;21.03;38.82
17209;BME280;8720;48.488;9.202;2023-04-30T10:35:46;97218.81;;;20.89;39.14
17209;BME280;8720;48.488;9.202;2023-04-30T10:38:22;97217.00;;;20.90;39.23
17209;BME280;8720;48.488;9.202;2023-04-30T10:40:54;97217.00;;;20.90;39.37
17209;BME280;8720;48.488;9.202;2023-04-30T10:43:25;97211.59;;;20.91;39.30
17209;BME280;8720;48.488;9.202;2023-04-30T10:45:53;97219.94;;;20.99;38.88
17209;BME280;8720;48.488;9.202;2023-04-30T10:48:22;97207.78;;;20.95;39.07
17209;BME280;8720;48.488;9.202;2023-04-30T10:50:54;97206.28;;;20.91;39.02
17209;BME280;8720;48.488;9.202;2023-04-30T10:53:23;97199.16;;;20.92;38.77
17209;BME280;8720;48.488;9.202;2023-04-30T10:55:57;97199.72;;;20.97;38.36
17209;BME280;8720;48.488;9.202;2023-04-30T10:58:30;97209.31;;;20.99;38.27
17209;BME280;8720;48.488;9.202;2023-04-30T11:01:07;97199.09;;;21.07;38.95
17209;BME280;8720;48.488;9.202;2023-04-30T11:03:39;97194.69;;;21.20;38.74
17209;BME280;8720;48.488;9.202;2023-04-30T11:06:10;97207.69;;;21.39;38.32
17209;BME280;8720;48.488;9.202;2023-04-30T11:08:43;97193.69;;;21.49;38.44
17209;BME280;8720;48.488;9.202;2023-04-30T11:11:12;97191.28;;;21.59;38.09
17209;BME280;8720;48.488;9.202;2023-04-30T11:13:58;97186.31;;;21.67;38.48
17209;BME280;8720;48.488;9.202;2023-04-30T11:16:29;97184.09;;;21.73;37.68
17209;BME280;8720;48.488;9.202;2023-04-30T11:19:05;97192.84;;;21.76;37.96
17209;BME280;8720;48.488;9.202;2023-04-30T11:21:32;97187.84;;;21.71;37.65
17209;BME280;8720;48.488;9.202;2023-04-30T11:24:02;97192.00;;;21.75;37.38
17209;BME280;8720;48.488;9.202;2023-04-30T11:27:02;97181.53;;;21.72;38.20
17209;BME280;8720;48.488;9.202;2023-04-30T11:29:32;97187.91;;;21.69;37.87
17209;BME280;8720;48.488;9.202;2023-04-30T11:32:00;97182.81;;;21.66;37.35
17209;BME280;8720;48.488;9.202;2023-04-30T11:34:29;97169.13;;;21.58;36.99
17209;BME280;8720;48.488;9.202;2023-04-30T11:36:59;97180.34;;;21.63;37.41
17209;BME280;8720;48.488;9.202;2023-04-30T11:39:28;97176.50;;;21.67;37.60
17209;BME280;8720;48.488;9.202;2023-04-30T11:42:01;97169.28;;;21.69;37.51
17209;BME280;8720;48.488;9.202;2023-04-30T11:44:29;97169.94;;;21.73;37.44
17209;BME280;8720;48.488;9.202;2023-04-30T11:46:58;97168.69;;;21.79;37.18
17209;BME280;8720;48.488;9.202;2023-04-30T11:49:26;97161.47;;;21.81;37.04
17209;BME280;8720;48.488;9.202;2023-04-30T11:51:53;97167.63;;;21.81;37.12
17209;BME280;8720;48.488;9.202;2023-04-30T11:54:21;97149.06;;;21.80;37.08
17209;BME280;8720;48.488;9.202;2023-04-30T11:56:49;97135.81;;;21.65;37.00
17209;BME280;8720;48.488;9.202;2023-04-30T11:59:18;97152.13;;;21.73;36.91
17209;BME280;8720;48.488;9.202;2023-04-30T12:01:45;97148.81;;;21.70;37.21
17209;BME280;8720;48.488;9.202;2023-04-30T12:04:14;97146.16;;;21.70;36.91
17209;BME280;8720;48.488;9.202;2023-04-30T12:06:44;97148.53;;;21.75;37.13
17209;BME280;8720;48.488;9.202;2023-04-30T12:09:11;97150.13;;;21.77;36.74
17209;BME280;8720;48.488;9.202;2023-04-30T12:11:39;97148.69;;;21.86;37.24
17209;BME280;8720;48.488;9.202;2023-04-30T12:14:08;97147.25;;;21.94;37.15
17209;BME280;8720;48.488;9.202;2023-04-30T12:16:41;97148.63;;;22.00;36.60
17209;BME280;8720;48.488;9.202;2023-04-30T12:19:16;97156.13;;;22.07;36.52
17209;BME280;8720;48.488;9.202;2023-04-30T12:21:45;97149.50;;;22.13;36.81
17209;BME280;8720;48.488;9.202;2023-04-30T12:24:14;97144.72;;;22.18;36.31
17209;BME280;8720;48.488;9.202;2023-04-30T12:26:42;97142.72;;;22.21;36.06
17209;BME280;8720;48.488;9.202;2023-04-30T12:29:13;97134.91;;;22.18;35.80
17209;BME280;8720;48.488;9.202;2023-04-30T12:31:42;97141.41;;;22.14;35.47
17209;BME280;8720;48.488;9.202;2023-04-30T12:34:12;97139.72;;;22.13;35.87
17209;BME280;8720;48.488;9.202;2023-04-30T12:36:41;97143.13;;;22.15;35.71
17209;BME280;8720;48.488;9.202;2023-04-30T12:39:10;97131.72;;;22.13;35.84
17209;BME280;8720;48.488;9.202;2023-04-30T12:41:40;97135.78;;;22.19;35.49
17209;BME280;8720;48.488;9.202;2023-04-30T12:44:16;97130.97;;;22.24;35.71
17209;BME280;8720;48.488;9.202;2023-04-30T12:46:45;97128.00;;;22.28;35.94
17209;BME280;8720;48.488;9.202;2023-04-30T12:49:22;97133.31;;;22.41;35.67
17209;BME280;8720;48.488;9.202;2023-04-30T12:51:58;97121.69;;;22.54;35.53
17209;BME280;8720;48.488;9.202;2023-04-30T12:54:27;97123.97;;;22.61;34.90
17209;BME280;8720;48.488;9.202;2023-04-30T12:57:00;97120.75;;;22.55;35.48
17209;BME280;8720;48.488;9.202;2023-04-30T12:59:29;97115.72;;;22.51;34.97
17209;BME280;8720;48.488;9.202;2023-04-30T13:02:06;97121.50;;;22.45;34.91
17209;BME280;8720;48.488;9.202;2023-04-30T13:04:34;97108.59;;;22.39;34.50
17209;BME280;8720;48.488;9.202;2023-04-30T13:07:03;97116.16;;;22.32;35.25
17209;BME280;8720;48.488;9.202;2023-04-30T13:09:32;97104.88;;;22.29;35.13
17209;BME280;8720;48.488;9.202;2023-04-30T13:11:59;97113.16;;;22.37;35.00
17209;BME280;8720;48.488;9.202;2023-04-30T13:14:27;97091.19;;;22.33;35.28
17209;BME280;8720;48.488;9.202;2023-04-30T13:16:54;97103.81;;;22.44;35.25
17209;BME280;8720;48.488;9.202;2023-04-30T13:19:22;97091.22;;;22.46;35.00
17209;BME280;8720;48.488;9.202;2023-04-30T13:21:50;97094.75;;;22.46;34.79
17209;BME280;8720;48.488;9.202;2023-04-30T13:24:18;97087.06;;;22.42;34.98